sensor_id;sensor_type;location;lat;lon;timestamp;P1;durP1;ratioP1;P2;durP2;ratioP2
53287;SDS011;39172;45.550;12.072;2023-03-03T00:05:08;7.43;;;5.60;;
53287;SDS011;39172;45.550;12.072;2023-03-03T00:11:09;9.95;;;7.40;;
53287;SDS011;39172;45.550;12.072;2023-03-03T00:17:43;11.25;;;7.22;;
53287;SDS011;39172;45.550;12.072;2023-03-03T00:23:37;7.78;;;5.32;;
53287;SDS011;39172;45.550;12.072;2023-03-03T00:29:48;6.90;;;5.28;;
53287;SDS011;39172;45.550;12.072;2023-03-03T00:35:50;7.40;;;4.45;;
53287;SDS011;39172;45.550;12.072;2023-03-03T00:41:51;7.05;;;5.30;;
53287;SDS011;39172;45.550;12.072;2023-03-03T00:47:52;5.13;;;4.05;;
53287;SDS011;39172;45.550;12.072;2023-03-03T00:53:54;6.88;;;4.95;;
53287;SDS011;39172;45.550;12.072;2023-03-03T00:59:55;9.27;;;7.00;;
53287;SDS011;39172;45.550;12.072;2023-03-03T01:05:56;6.03;;;4.78;;
53287;SDS011;39172;45.550;12.072;2023-03-03T01:11:58;5.82;;;3.97;;
53287;SDS011;39172;45.550;12.072;2023-03-03T01:17:59;5.47;;;4.03;;
53287;SDS011;39172;45.550;12.072;2023-03-03T01:24:00;6.68;;;4.80;;
53287;SDS011;39172;45.550;12.072;2023-03-03T01:30:01;6.40;;;4.70;;
53287;SDS011;39172;45.550;12.072;2023-03-03T01:36:02;6.82;;;4.90;;
53287;SDS011;39172;45.550;12.072;2023-03-03T01:42:03;6.18;;;4.57;;
53287;SDS011;39172;45.550;12.072;2023-03-03T01:48:13;8.27;;;5.53;;
53287;SDS011;39172;45.550;12.072;2023-03-03T01:54:20;7.03;;;5.13;;
53287;SDS011;39172;45.550;12.072;2023-03-03T02:00:22;6.45;;;4.40;;
53287;SDS011;39172;45.550;12.072;2023-03-03T02:06:24;10.00;;;7.35;;
53287;SDS011;39172;45.550;12.072;2023-03-03T02:12:31;8.48;;;5.70;;
53287;SDS011;39172;45.550;12.072;2023-03-03T02:18:33;7.80;;;5.68;;
53287;SDS011;39172;45.550;12.072;2023-03-03T02:24:50;7.43;;;5.18;;
53287;SDS011;39172;45.550;12.072;2023-03-03T02:30:54;6.87;;;5.63;;
53287;SDS011;39172;45.550;12.072;2023-03-03T02:36:55;5.93;;;4.47;;
53287;SDS011;39172;45.550;12.072;2023-03-03T02:42:56;6.10;;;4.78;;
53287;SDS011;39172;45.550;12.072;2023-03-03T02:48:58;5.13;;;3.92;;
53287;SDS011;39172;45.550;12.072;2023-03-03T02:54:59;7.43;;;5.20;;
53287;SDS011;39172;45.550;12.072;2023-03-03T03:00:59;7.60;;;5.53;;
53287;SDS011;39172;45.550;12.072;2023-03-03T03:07:00;5.78;;;4.10;;
53287;SDS011;39172;45.550;12.072;2023-03-03T03:13:04;7.80;;;5.10;;
53287;SDS011;39172;45.550;12.072;2023-03-03T03:19:06;9.07;;;6.45;;
53287;SDS011;39172;45.550;12.072;2023-03-03T03:25:09;7.50;;;5.82;;
53287;SDS011;39172;45.550;12.072;2023-03-03T03:31:09;8.38;;;5.65;;
53287;SDS011;39172;45.550;12.072;2023-03-03T03:37:11;8.77;;;6.00;;
53287;SDS011;39172;45.550;12.072;2023-03-03T03:43:12;9.30;;;6.22;;
53287;SDS011;39172;45.550;12.072;2023-03-03T03:49:15;7.25;;;5.30;;
53287;SDS011;39172;45.550;12.072;2023-03-03T03:55:16;6.88;;;4.93;;
53287;SDS011;39172;45.550;12.072;2023-03-03T04:01:17;6.13;;;4.47;;
53287;SDS011;39172;45.550;12.072;2023-03-03T04:07:22;6.95;;;5.15;;
53287;SDS011;39172;45.550;12.072;2023-03-03T04:13:23;6.82;;;4.93;;
53287;SDS011;39172;45.550;12.072;2023-03-03T04:19:24;7.25;;;5.00;;
53287;SDS011;39172;45.550;12.072;2023-03-03T04:25:25;6.38;;;4.75;;
53287;SDS011;39172;45.550;12.072;2023-03-03T04:31:28;4.80;;;3.85;;
53287;SDS011;39172;45.550;12.072;2023-03-03T04:37:29;5.32;;;3.90;;
53287;SDS011;39172;45.550;12.072;2023-03-03T04:43:31;4.80;;;3.40;;
53287;SDS011;39172;45.550;12.072;2023-03-03T04:49:32;3.75;;;3.08;;
53287;SDS011;39172;45.550;12.072;2023-03-03T04:55:35;4.38;;;3.55;;
53287;SDS011;39172;45.550;12.072;2023-03-03T05:01:36;5.95;;;4.50;;
53287;SDS011;39172;45.550;12.072;2023-03-03T05:07:37;7.10;;;4.80;;
53287;SDS011;39172;45.550;12.072;2023-03-03T05:13:38;6.72;;;4.50;;
53287;SDS011;39172;45.550;12.072;2023-03-03T05:19:39;4.15;;;3.08;;
53287;SDS011;39172;45.550;12.072;2023-03-03T05:25:40;3.40;;;2.55;;
53287;SDS011;39172;45.550;12.072;2023-03-03T05:31:42;4.88;;;3.10;;
53287;SDS011;39172;45.550;12.072;2023-03-03T05:37:42;7.15;;;5.10;;
53287;SDS011;39172;45.550;12.072;2023-03-03T05:43:47;6.50;;;4.72;;
53287;SDS011;39172;45.550;12.072;2023-03-03T05:49:48;6.15;;;4.30;;
53287;SDS011;39172;45.550;12.072;2023-03-03T05:55:48;8.48;;;5.65;;
53287;SDS011;39172;45.550;12.072;2023-03-03T06:01:49;9.73;;;5.40;;
53287;SDS011;39172;45.550;12.072;2023-03-03T06:07:50;8.15;;;5.45;;
53287;SDS011;39172;45.550;12.072;2023-03-03T06:13:51;7.53;;;5.10;;
53287;SDS011;39172;45.550;12.072;2023-03-03T06:19:52;6.07;;;4.00;;
53287;SDS011;39172;45.550;12.072;2023-03-03T06:25:53;6.85;;;4.68;;
53287;SDS011;39172;45.550;12.072;2023-03-03T06:31:53;5.45;;;3.90;;
53287;SDS011;39172;45.550;12.072;2023-03-03T06:37:54;5.68;;;3.80;;
53287;SDS011;39172;45.550;12.072;2023-03-03T06:43:55;5.47;;;4.18;;
53287;SDS011;39172;45.550;12.072;2023-03-03T06:49:57;10.35;;;6.60;;
53287;SDS011;39172;45.550;12.072;2023-03-03T06:55:59;10.43;;;5.97;;
53287;SDS011;39172;45.550;12.072;2023-03-03T07:02:03;7.18;;;5.47;;
53287;SDS011;39172;45.550;12.072;2023-03-03T07:08:14;8.97;;;6.10;;
53287;SDS011;39172;45.550;12.072;2023-03-03T07:14:17;9.80;;;6.57;;
53287;SDS011;39172;45.550;12.072;2023-03-03T07:20:28;8.65;;;6.10;;
53287;SDS011;39172;45.550;12.072;2023-03-03T07:26:29;7.95;;;5.05;;
53287;SDS011;39172;45.550;12.072;2023-03-03T07:32:39;5.07;;;4.05;;
53287;SDS011;39172;45.550;12.072;2023-03-03T07:38:41;5.25;;;3.38;;
53287;SDS011;39172;45.550;12.072;2023-03-03T07:44:45;8.75;;;6.20;;
53287;SDS011;39172;45.550;12.072;2023-03-03T07:50:48;9.70;;;6.40;;
53287;SDS011;39172;45.550;12.072;2023-03-03T07:56:49;9.00;;;6.15;;
53287;SDS011;39172;45.550;12.072;2023-03-03T08:08:51;8.00;;;5.70;;
53287;SDS011;39172;45.550;12.072;2023-03-03T08:14:52;6.70;;;5.05;;
53287;SDS011;39172;45.550;12.072;2023-03-03T08:20:57;6.70;;;4.72;;
53287;SDS011;39172;45.550;12.072;2023-03-03T08:26:59;6.18;;;4.40;;
53287;SDS011;39172;45.550;12.072;2023-03-03T08:32:59;5.85;;;4.07;;
53287;SDS011;39172;45.550;12.072;2023-03-03T08:39:01;4.95;;;3.65;;
53287;SDS011;39172;45.550;12.072;2023-03-03T08:45:02;5.10;;;3.88;;
53287;SDS011;39172;45.550;12.072;2023-03-03T08:51:03;7.28;;;4.28;;
53287;SDS011;39172;45.550;12.072;2023-03-03T08:57:05;4.93;;;3.60;;
53287;SDS011;39172;45.550;12.072;2023-03-03T09:03:05;4.32;;;3.08;;
53287;SDS011;39172;45.550;12.072;2023-03-03T09:09:06;4.60;;;3.50;;
53287;SDS011;39172;45.550;12.072;2023-03-03T09:15:26;6.15;;;4.03;;
53287;SDS011;39172;45.550;12.072;2023-03-03T09:21:29;5.15;;;3.65;;
53287;SDS011;39172;45.550;12.072;2023-03-03T09:27:33;4.20;;;2.95;;
53287;SDS011;39172;45.550;12.072;2023-03-03T09:33:40;4.55;;;3.17;;
53287;SDS011;39172;45.550;12.072;2023-03-03T09:39:41;3.15;;;2.42;;
53287;SDS011;39172;45.550;12.072;2023-03-03T09:46:07;5.50;;;3.40;;
53287;SDS011;39172;45.550;12.072;2023-03-03T10:04:27;4.93;;;3.20;;
53287;SDS011;39172;45.550;12.072;2023-03-03T10:17:16;3.13;;;2.25;;
53287;SDS011;39172;45.550;12.072;2023-03-03T10:42:11;3.88;;;2.42;;
53287;SDS011;39172;45.550;12.072;2023-03-03T10:54:38;5.47;;;3.15;;
53287;SDS011;39172;45.550;12.072;2023-03-03T11:00:43;4.00;;;2.70;;
53287;SDS011;39172;45.550;12.072;2023-03-03T11:06:52;4.75;;;2.90;;
53287;SDS011;39172;45.550;12.072;2023-03-03T11:31:26;4.50;;;2.80;;
53287;SDS011;39172;45.550;12.072;2023-03-03T11:37:45;6.35;;;3.65;;
53287;SDS011;39172;45.550;12.072;2023-03-03T11:43:53;3.50;;;2.60;;
53287;SDS011;39172;45.550;12.072;2023-03-03T11:56:23;4.18;;;2.72;;
53287;SDS011;39172;45.550;12.072;2023-03-03T12:28:02;5.43;;;3.70;;
53287;SDS011;39172;45.550;12.072;2023-03-03T12:40:04;4.25;;;3.20;;
53287;SDS011;39172;45.550;12.072;2023-03-03T12:46:10;4.93;;;2.60;;
53287;SDS011;39172;45.550;12.072;2023-03-03T13:10:37;5.55;;;3.55;;
53287;SDS011;39172;45.550;12.072;2023-03-03T13:16:55;4.60;;;3.30;;
53287;SDS011;39172;45.550;12.072;2023-03-03T13:23:03;4.60;;;3.00;;
53287;SDS011;39172;45.550;12.072;2023-03-03T13:29:12;5.10;;;3.03;;
53287;SDS011;39172;45.550;12.072;2023-03-03T13:41:29;6.60;;;4.45;;
53287;SDS011;39172;45.550;12.072;2023-03-03T13:47:41;8.25;;;5.10;;
53287;SDS011;39172;45.550;12.072;2023-03-03T13:53:52;10.00;;;5.60;;
53287;SDS011;39172;45.550;12.072;2023-03-03T14:00:15;11.25;;;6.30;;
53287;SDS011;39172;45.550;12.072;2023-03-03T14:06:20;9.82;;;5.40;;
53287;SDS011;39172;45.550;12.072;2023-03-03T14:12:28;11.52;;;6.80;;
53287;SDS011;39172;45.550;12.072;2023-03-03T14:24:58;14.98;;;9.20;;
53287;SDS011;39172;45.550;12.072;2023-03-03T14:31:00;23.48;;;10.00;;
53287;SDS011;39172;45.550;12.072;2023-03-03T14:49:33;15.55;;;8.25;;
53287;SDS011;39172;45.550;12.072;2023-03-03T14:55:36;15.32;;;8.05;;
53287;SDS011;39172;45.550;12.072;2023-03-03T15:01:38;16.52;;;8.18;;
53287;SDS011;39172;45.550;12.072;2023-03-03T15:07:39;15.38;;;8.77;;
53287;SDS011;39172;45.550;12.072;2023-03-03T15:13:39;16.55;;;9.32;;
53287;SDS011;39172;45.550;12.072;2023-03-03T15:19:43;14.52;;;8.20;;
53287;SDS011;39172;45.550;12.072;2023-03-03T15:38:32;14.52;;;6.78;;
53287;SDS011;39172;45.550;12.072;2023-03-03T15:56:57;12.80;;;6.82;;
53287;SDS011;39172;45.550;12.072;2023-03-03T16:03:09;14.30;;;7.10;;
53287;SDS011;39172;45.550;12.072;2023-03-03T16:33:34;14.43;;;8.07;;
53287;SDS011;39172;45.550;12.072;2023-03-03T16:45:43;11.25;;;6.70;;
53287;SDS011;39172;45.550;12.072;2023-03-03T16:51:47;13.00;;;7.03;;
53287;SDS011;39172;45.550;12.072;2023-03-03T16:57:52;11.70;;;6.25;;
53287;SDS011;39172;45.550;12.072;2023-03-03T17:04:05;10.75;;;5.90;;
53287;SDS011;39172;45.550;12.072;2023-03-03T17:10:27;8.60;;;4.90;;
53287;SDS011;39172;45.550;12.072;2023-03-03T17:41:20;6.72;;;4.32;;
53287;SDS011;39172;45.550;12.072;2023-03-03T18:42:52;7.75;;;4.70;;
53287;SDS011;39172;45.550;12.072;2023-03-03T18:49:07;7.13;;;4.88;;
53287;SDS011;39172;45.550;12.072;2023-03-03T19:07:14;5.30;;;3.75;;
53287;SDS011;39172;45.550;12.072;2023-03-03T19:19:32;5.10;;;3.10;;
53287;SDS011;39172;45.550;12.072;2023-03-03T19:25:34;4.30;;;2.90;;
53287;SDS011;39172;45.550;12.072;2023-03-03T19:56:39;3.15;;;2.22;;
53287;SDS011;39172;45.550;12.072;2023-03-03T20:08:48;3.10;;;2.08;;
53287;SDS011;39172;45.550;12.072;2023-03-03T20:15:00;3.55;;;2.50;;
53287;SDS011;39172;45.550;12.072;2023-03-03T20:27:23;3.75;;;2.83;;
53287;SDS011;39172;45.550;12.072;2023-03-03T20:52:13;6.65;;;4.30;;
53287;SDS011;39172;45.550;12.072;2023-03-03T21:04:42;9.73;;;6.68;;
53287;SDS011;39172;45.550;12.072;2023-03-03T21:10:54;10.27;;;6.63;;
53287;SDS011;39172;45.550;12.072;2023-03-03T21:16:57;11.75;;;7.10;;
53287;SDS011;39172;45.550;12.072;2023-03-03T21:22:59;10.13;;;6.88;;
53287;SDS011;39172;45.550;12.072;2023-03-03T21:29:00;10.50;;;7.45;;
53287;SDS011;39172;45.550;12.072;2023-03-03T21:35:10;11.40;;;7.35;;
53287;SDS011;39172;45.550;12.072;2023-03-03T21:41:11;11.15;;;7.47;;
53287;SDS011;39172;45.550;12.072;2023-03-03T21:47:14;11.85;;;7.93;;
53287;SDS011;39172;45.550;12.072;2023-03-03T21:53:15;12.10;;;7.78;;
53287;SDS011;39172;45.550;12.072;2023-03-03T21:59:16;12.95;;;8.40;;
53287;SDS011;39172;45.550;12.072;2023-03-03T22:05:16;13.45;;;8.55;;
53287;SDS011;39172;45.550;12.072;2023-03-03T22:11:17;12.30;;;8.27;;
53287;SDS011;39172;45.550;12.072;2023-03-03T22:17:18;10.43;;;7.28;;
53287;SDS011;39172;45.550;12.072;2023-03-03T22:23:19;10.45;;;7.22;;
53287;SDS011;39172;45.550;12.072;2023-03-03T22:29:20;9.77;;;6.80;;
53287;SDS011;39172;45.550;12.072;2023-03-03T22:35:22;12.07;;;6.85;;
53287;SDS011;39172;45.550;12.072;2023-03-03T22:41:23;10.73;;;6.95;;
53287;SDS011;39172;45.550;12.072;2023-03-03T22:47:24;10.15;;;6.88;;
53287;SDS011;39172;45.550;12.072;2023-03-03T22:53:25;9.60;;;6.57;;
53287;SDS011;39172;45.550;12.072;2023-03-03T22:59:25;10.55;;;6.72;;
53287;SDS011;39172;45.550;12.072;2023-03-03T23:05:26;11.77;;;7.68;;
53287;SDS011;39172;45.550;12.072;2023-03-03T23:11:27;14.05;;;9.32;;
53287;SDS011;39172;45.550;12.072;2023-03-03T23:17:28;14.18;;;9.55;;
53287;SDS011;39172;45.550;12.072;2023-03-03T23:23:29;15.98;;;10.65;;
53287;SDS011;39172;45.550;12.072;2023-03-03T23:29:30;16.75;;;11.10;;
53287;SDS011;39172;45.550;12.072;2023-03-03T23:35:31;14.05;;;9.43;;
53287;SDS011;39172;45.550;12.072;2023-03-03T23:41:32;12.63;;;8.60;;
53287;SDS011;39172;45.550;12.072;2023-03-03T23:47:33;11.23;;;8.45;;
53287;SDS011;39172;45.550;12.072;2023-03-03T23:53:33;12.20;;;8.75;;
53287;SDS011;39172;45.550;12.072;2023-03-03T23:59:34;10.52;;;8.10;;
